Zenith Leader — 2ACU6 — position and weather

sailwx.info

Track history (hours):
 
Tides and Currents Weather Stations Pressure Air Temp Water Temp Dewpoint Dewpoint Depression Visibility Wind Speed Wind Dir Waves Ship Positions

Zenith Leader

Last reported at 2015-Jun-28 23:32 UTC. Time now 2015-Aug-01 05:48 UTC.
Position N 34°51' E 140°24'.
Warning: this ship's position is 33 days out of date.

Length 200 m; draft 8.9 m.

Type: Cargo ship. MMSI: 235058697.

Date/timePositionNaut miles runAvg speedWind from/ knotsBaromVisibWave heightAir tempDewpointWater temp
2015-Jun-28 23:32N 34°51' E 140°24'1414.7
2015-Jun-28 22:33N 34°48' E 140°07'1413.6
2015-Jun-28 21:33N 34°48' E 139°51'1413.8
2015-Jun-28 20:33N 34°59' E 139°41'1313.3
2015-Jun-28 19:33N 35°12' E 139°46'1212.1
2015-Jun-28 18:33N 35°24' E 139°42'4 3.6
2015-Jun-28 17:32N 35°27' E 139°41'0 0.0
2015-Jun-28 16:32N 35°27' E 139°41'0 0.0
2015-Jun-28 15:32N 35°27' E 139°41'0 0.0
2015-Jun-28 14:32N 35°27' E 139°41'0 0.0
2015-Jun-28 13:32N 35°27' E 139°41'0 0.0
2015-Jun-28 12:32N 35°27' E 139°41'0 0.0
2015-Jun-28 11:32N 35°27' E 139°41'0 0.0
2015-Jun-28 10:29N 35°27' E 139°41'0 0.0
2015-Jun-28 09:32N 35°27' E 139°41'0 0.0
2015-Jun-28 08:32N 35°27' E 139°41'2 2.0
2015-Jun-28 07:33N 35°26' E 139°43'8 7.8
2015-Jun-28 06:33N 35°18' E 139°44'10 9.7
2015-Jun-28 05:33N 35°09' E 139°46'4 4.4
2015-Jun-28 04:33N 35°05' E 139°42'8 8.0
2015-Jun-28 03:34N 35°01' E 139°34'1616.1
2015-Jun-28 02:33N 34°50' E 139°19'6416.0
2015-Jun-27 22:33N 34°14' E 138°15'36913.6
2015-Jun-26 19:31N 34°03' E 130°50'16 7.2
2015-Jun-26 17:15N 34°04' E 130°30'  
2015-Jun-24 01:33N 37°06' E 126°36'14 0.4
2015-Jun-22 12:13N 36°58' E 126°50'  
Track history (hours):
 
Tides and Currents Weather Stations Pressure Air Temp Water Temp Dewpoint Dewpoint Depression Visibility Wind Speed Wind Dir Waves Ship Positions

Zenith Leader

Last reported at 2015-Jun-28 23:32 UTC. Time now 2015-Aug-01 05:48 UTC.
Position N 34°51' E 140°24'.
Warning: this ship's position is 33 days out of date.

Length 200 m; draft 8.9 m.

Type: Cargo ship. MMSI: 235058697.

Date/timePositionNaut miles runAvg speedWind from/ knotsBaromVisibWave heightAir tempDewpointWater temp
2015-Jun-28 23:32N 34°51' E 140°24'1414.7
2015-Jun-28 22:33N 34°48' E 140°07'1413.6
2015-Jun-28 21:33N 34°48' E 139°51'1413.8
2015-Jun-28 20:33N 34°59' E 139°41'1313.3
2015-Jun-28 19:33N 35°12' E 139°46'1212.1
2015-Jun-28 18:33N 35°24' E 139°42'4 3.6
2015-Jun-28 17:32N 35°27' E 139°41'0 0.0
2015-Jun-28 16:32N 35°27' E 139°41'0 0.0
2015-Jun-28 15:32N 35°27' E 139°41'0 0.0
2015-Jun-28 14:32N 35°27' E 139°41'0 0.0
2015-Jun-28 13:32N 35°27' E 139°41'0 0.0
2015-Jun-28 12:32N 35°27' E 139°41'0 0.0
2015-Jun-28 11:32N 35°27' E 139°41'0 0.0
2015-Jun-28 10:29N 35°27' E 139°41'0 0.0
2015-Jun-28 09:32N 35°27' E 139°41'0 0.0
2015-Jun-28 08:32N 35°27' E 139°41'2 2.0
2015-Jun-28 07:33N 35°26' E 139°43'8 7.8
2015-Jun-28 06:33N 35°18' E 139°44'10 9.7
2015-Jun-28 05:33N 35°09' E 139°46'4 4.4
2015-Jun-28 04:33N 35°05' E 139°42'8 8.0
2015-Jun-28 03:34N 35°01' E 139°34'1616.1
2015-Jun-28 02:33N 34°50' E 139°19'6416.0
2015-Jun-27 22:33N 34°14' E 138°15'36913.6
2015-Jun-26 19:31N 34°03' E 130°50'16 7.2
2015-Jun-26 17:15N 34°04' E 130°30'  
2015-Jun-24 01:33N 37°06' E 126°36'14 0.4
2015-Jun-22 12:13N 36°58' E 126°50'  

Dump ship's entire track history